Aviation Digital Data Service (ADDS)

Output produced by METARs form (1336 UTC 20 July 2019)
found at http://www.aviationweather.gov/metar/data/
 
Forecast for: LIRP (PISA (CIV/IT-AFB, IT)
Text: TAF LIRP 201100Z 2012/2112 27010KT CAVOK
Forecast period: 1200 to 1800 UTC 20 July 2019
Forecast type: FROM: standard forecast or significant change
Winds: from the W (270 degrees) at 12 MPH (10 knots; 5.1 m/s)
Visibility: 6 or more miles 10+ km)
Ceiling: unknown
Clouds: missing
Weather: NSW  (no significant weather)
Text: BECMG 2018/2020 12004KT
Forecast period: 1800 UTC 20 July 2019 to 0800 UTC 21 July 2019
Forecast type: BECOMING: Conditions expected to become as follows by 2000 UTC 20 July 2019
Winds: from the ESE (120 degrees) at 5 MPH (4 knots; 2.1 m/s)
Visibility: 6 or more miles 10+ km)
Ceiling: unknown
Clouds: missing
Weather: NSW  (no significant weather)
Text: BECMG 2108/2110 27010KT
Forecast period: 0800 to 1200 UTC 21 July 2019
Forecast type: BECOMING: Conditions expected to become as follows by 1000 UTC 21 July 2019
Winds: from the W (270 degrees) at 12 MPH (10 knots; 5.1 m/s)
Visibility: 6 or more miles 10+ km)
Ceiling: unknown
Clouds: missing
Weather: NSW  (no significant weather)